createdAt,value
2019-03-10T00:02:21.494Z,18.80
2019-03-10T00:04:55.049Z,18.80
2019-03-10T00:07:28.782Z,18.80
2019-03-10T00:10:02.433Z,18.80
2019-03-10T00:12:36.963Z,18.80
2019-03-10T00:15:12.370Z,18.80
2019-03-10T00:17:45.861Z,18.80
2019-03-10T00:20:19.100Z,18.80
2019-03-10T00:22:53.553Z,18.80
2019-03-10T00:25:27.049Z,18.80
2019-03-10T00:28:00.857Z,18.80
2019-03-10T00:30:34.246Z,18.80
2019-03-10T00:33:08.261Z,18.80
2019-03-10T00:35:41.490Z,18.80
2019-03-10T00:38:15.114Z,18.80
2019-03-10T00:41:02.409Z,18.80
2019-03-10T00:43:53.982Z,18.80
2019-03-10T00:46:42.136Z,18.80
2019-03-10T00:49:53.757Z,18.80
2019-03-10T00:52:39.952Z,18.80
2019-03-10T00:55:15.731Z,18.80
2019-03-10T00:57:50.615Z,18.90
2019-03-10T01:00:24.266Z,18.90
2019-03-10T01:02:58.650Z,19.00
2019-03-10T01:05:32.876Z,19.00
2019-03-10T01:08:06.458Z,19.00
2019-03-10T01:10:40.630Z,19.00
2019-03-10T01:13:14.086Z,19.00
2019-03-10T01:15:47.859Z,19.00
2019-03-10T01:18:21.807Z,19.10
2019-03-10T01:20:58.557Z,19.10
2019-03-10T01:23:32.483Z,19.20
2019-03-10T01:26:06.312Z,19.20
2019-03-10T01:28:40.081Z,19.20
2019-03-10T01:31:39.030Z,19.20
2019-03-10T01:34:32.102Z,19.20
2019-03-10T01:37:09.048Z,19.30
2019-03-10T01:39:44.439Z,19.30
2019-03-10T01:42:21.837Z,19.30
2019-03-10T01:44:55.097Z,19.40
2019-03-10T01:47:33.353Z,19.40
2019-03-10T01:50:09.105Z,19.40
2019-03-10T01:52:42.954Z,19.50
2019-03-10T01:55:16.872Z,19.50
2019-03-10T01:57:51.677Z,19.50
2019-03-10T02:00:27.304Z,19.50
2019-03-10T02:03:08.573Z,19.60
2019-03-10T02:05:44.852Z,19.60
2019-03-10T02:08:24.485Z,19.70
2019-03-10T02:10:57.882Z,19.70
2019-03-10T02:13:31.179Z,19.80
2019-03-10T02:16:04.850Z,19.90
2019-03-10T02:18:39.023Z,19.90
2019-03-10T02:21:12.753Z,20.00
2019-03-10T02:23:46.078Z,20.00
2019-03-10T02:26:19.807Z,20.00
2019-03-10T02:28:53.783Z,20.00
2019-03-10T02:31:27.664Z,20.10
2019-03-10T02:34:01.342Z,20.10
2019-03-10T02:36:35.665Z,20.20
2019-03-10T02:39:09.494Z,20.20
2019-03-10T02:41:43.465Z,20.20
2019-03-10T02:44:16.952Z,20.20
2019-03-10T02:46:50.551Z,20.30
2019-03-10T02:49:25.374Z,20.30
2019-03-10T02:51:59.180Z,20.40
2019-03-10T02:54:32.650Z,20.50
2019-03-10T02:57:08.203Z,20.60
2019-03-10T02:59:42.124Z,20.70
2019-03-10T03:02:16.805Z,20.90
2019-03-10T03:04:50.041Z,21.00
2019-03-10T03:07:24.235Z,21.10
2019-03-10T03:09:57.764Z,21.20
2019-03-10T03:12:35.140Z,21.40
2019-03-10T03:15:09.944Z,21.50
2019-03-10T03:17:43.521Z,21.60
2019-03-10T03:20:16.926Z,21.70
2019-03-10T03:22:50.792Z,21.80
2019-03-10T03:25:24.188Z,21.90
2019-03-10T03:27:57.981Z,21.90
2019-03-10T03:30:50.990Z,21.90
2019-03-10T03:33:27.541Z,22.00
2019-03-10T03:36:05.800Z,22.00
2019-03-10T03:38:45.213Z,22.10
2019-03-10T03:44:17.025Z,22.00
2019-03-10T03:46:53.571Z,22.00
2019-03-10T03:49:32.548Z,22.00
2019-03-10T03:52:06.650Z,22.00
2019-03-10T03:54:40.381Z,22.00
2019-03-10T03:57:14.499Z,22.00
2019-03-10T03:59:48.408Z,22.00
2019-03-10T04:02:30.815Z,22.00
2019-03-10T04:04:58.099Z,21.90
2019-03-10T04:07:31.662Z,21.90
2019-03-10T04:10:06.139Z,22.00
2019-03-10T04:12:39.622Z,22.00
2019-03-10T04:15:15.863Z,22.00
2019-03-10T04:17:49.216Z,22.00
2019-03-10T04:20:23.348Z,22.10
2019-03-10T04:22:56.612Z,22.10
2019-03-10T04:25:31.268Z,22.10
2019-03-10T04:28:07.780Z,22.00
2019-03-10T04:30:41.950Z,22.00
2019-03-10T04:33:15.794Z,21.90
2019-03-10T04:35:50.486Z,21.90
2019-03-10T04:38:24.000Z,22.00
2019-03-10T04:40:58.106Z,22.00
2019-03-10T04:43:31.803Z,22.00
2019-03-10T04:46:07.722Z,22.10
2019-03-10T04:48:41.655Z,22.30
2019-03-10T04:51:15.725Z,22.40
2019-03-10T04:53:51.448Z,22.50
2019-03-10T04:56:35.345Z,22.60
2019-03-10T04:59:11.418Z,22.70
2019-03-10T05:01:45.264Z,22.70
2019-03-10T05:04:19.762Z,22.90
2019-03-10T05:06:57.514Z,22.90
2019-03-10T05:09:29.790Z,22.90
2019-03-10T05:12:04.512Z,22.90
2019-03-10T05:14:44.893Z,22.90
2019-03-10T05:17:18.133Z,22.90
2019-03-10T05:19:51.872Z,23.00
2019-03-10T05:22:25.140Z,23.10
2019-03-10T05:24:59.127Z,23.20
2019-03-10T05:27:32.460Z,23.20
2019-03-10T05:30:06.098Z,23.20
2019-03-10T05:32:39.527Z,23.30
2019-03-10T05:35:13.563Z,23.40
2019-03-10T05:37:46.837Z,23.40
2019-03-10T05:40:20.944Z,23.40
2019-03-10T05:42:54.686Z,23.40
2019-03-10T05:45:28.421Z,23.30
2019-03-10T05:48:01.795Z,23.20
2019-03-10T05:50:35.600Z,23.10
2019-03-10T05:53:09.320Z,23.10
2019-03-10T05:55:43.117Z,23.20
2019-03-10T05:58:16.683Z,23.20
2019-03-10T06:00:50.616Z,23.20
2019-03-10T06:03:24.142Z,23.30
2019-03-10T06:06:04.598Z,23.30
2019-03-10T06:08:33.029Z,23.30
2019-03-10T06:11:07.419Z,23.40
2019-03-10T06:13:40.613Z,23.40
2019-03-10T06:16:14.038Z,23.60
2019-03-10T06:18:47.449Z,23.60
2019-03-10T06:21:21.235Z,23.60
2019-03-10T06:23:54.949Z,23.60
2019-03-10T06:26:28.832Z,23.50
2019-03-10T06:29:02.453Z,23.40
2019-03-10T06:31:35.917Z,23.40
2019-03-10T06:34:09.266Z,23.40
2019-03-10T06:36:43.489Z,23.30
2019-03-10T06:39:16.784Z,23.30
2019-03-10T06:41:50.659Z,23.20
2019-03-10T06:44:24.691Z,23.20
2019-03-10T06:47:15.056Z,23.20
2019-03-10T06:49:36.990Z,23.20
2019-03-10T06:52:12.254Z,23.10
2019-03-10T06:54:47.343Z,23.10
2019-03-10T06:57:21.420Z,23.10
2019-03-10T06:59:54.831Z,23.20
2019-03-10T07:05:28.017Z,23.30
2019-03-10T07:08:03.449Z,23.30
2019-03-10T07:10:37.477Z,23.40
2019-03-10T07:13:11.500Z,23.50
2019-03-10T07:15:44.872Z,23.60
2019-03-10T07:18:18.568Z,23.60
2019-03-10T07:20:58.008Z,23.60
2019-03-10T07:23:33.551Z,23.60
2019-03-10T07:26:09.434Z,23.60
2019-03-10T07:28:47.049Z,23.60
2019-03-10T07:31:26.677Z,23.60
2019-03-10T07:34:16.360Z,23.60
2019-03-10T07:36:57.611Z,23.60
2019-03-10T07:39:50.649Z,23.70
2019-03-10T07:42:29.392Z,23.70
2019-03-10T07:45:05.467Z,23.80
2019-03-10T07:47:54.560Z,23.70
2019-03-10T07:50:32.176Z,23.80
2019-03-10T07:53:18.784Z,23.80
2019-03-10T07:55:53.438Z,23.90
2019-03-10T07:58:33.941Z,23.90
2019-03-10T08:01:16.311Z,23.90
2019-03-10T08:03:50.985Z,23.90
2019-03-10T08:06:29.348Z,23.90
2019-03-10T08:09:10.120Z,23.80
2019-03-10T08:11:46.375Z,23.80
2019-03-10T08:14:21.775Z,23.80
2019-03-10T08:17:17.294Z,23.70
2019-03-10T08:20:19.877Z,23.50
2019-03-10T08:22:56.135Z,23.40
2019-03-10T08:25:46.606Z,23.30
2019-03-10T08:28:33.696Z,23.30
2019-03-10T08:31:17.220Z,23.20
2019-03-10T08:34:03.714Z,23.10
2019-03-10T08:36:44.238Z,23.10
2019-03-10T08:39:33.428Z,23.10
2019-03-10T08:42:20.905Z,23.10
2019-03-10T08:45:02.952Z,23.00
2019-03-10T08:47:46.931Z,23.10
2019-03-10T08:50:37.223Z,23.00
2019-03-10T08:53:18.741Z,23.00
2019-03-10T08:55:55.109Z,22.90
2019-03-10T08:58:54.772Z,22.90
2019-03-10T09:01:54.469Z,22.90
2019-03-10T09:04:56.757Z,22.90
2019-03-10T09:07:40.617Z,22.90
2019-03-10T09:10:18.977Z,22.90
2019-03-10T09:13:14.726Z,22.80
2019-03-10T09:16:07.702Z,22.80
2019-03-10T09:18:42.384Z,22.70
2019-03-10T09:21:22.671Z,22.70
2019-03-10T09:23:57.348Z,22.60
2019-03-10T09:26:37.684Z,22.60
2019-03-10T09:29:28.635Z,22.50
2019-03-10T09:32:10.995Z,22.50
2019-03-10T09:34:47.972Z,22.40
2019-03-10T09:37:22.368Z,22.40
2019-03-10T09:39:57.272Z,22.30
2019-03-10T09:42:48.124Z,22.30
2019-03-10T09:45:34.988Z,22.30
2019-03-10T09:48:15.232Z,22.20
2019-03-10T09:50:59.382Z,22.20
2019-03-10T09:53:41.265Z,22.10
2019-03-10T09:56:16.310Z,22.10
2019-03-10T09:58:50.842Z,22.00
2019-03-10T10:01:25.329Z,22.00
2019-03-10T10:04:05.749Z,22.00
2019-03-10T10:06:41.351Z,21.90
2019-03-10T10:09:24.987Z,21.90
2019-03-10T10:12:12.689Z,21.90
2019-03-10T10:14:44.022Z,21.80
2019-03-10T10:17:25.169Z,21.80
2019-03-10T10:19:59.708Z,21.70
2019-03-10T10:22:41.110Z,21.70
2019-03-10T10:25:16.115Z,21.70
2019-03-10T10:28:12.441Z,21.70
2019-03-10T10:30:56.604Z,21.60
2019-03-10T10:33:37.160Z,21.60
2019-03-10T10:36:20.486Z,21.50
2019-03-10T10:38:58.656Z,21.50
2019-03-10T10:41:36.111Z,21.50
2019-03-10T10:44:13.839Z,21.50
2019-03-10T10:46:53.917Z,21.40
2019-03-10T10:49:44.670Z,21.40
2019-03-10T10:52:35.337Z,21.30
2019-03-10T10:55:12.278Z,21.20
2019-03-10T10:57:47.583Z,21.30
2019-03-10T11:00:38.627Z,21.30
2019-03-10T11:03:20.533Z,21.30
2019-03-10T11:06:07.668Z,21.20
2019-03-10T11:08:48.192Z,21.20
2019-03-10T11:11:25.541Z,21.20
2019-03-10T11:14:15.778Z,21.20
2019-03-10T11:16:56.194Z,21.10
2019-03-10T11:30:36.011Z,21.10
2019-03-10T11:33:19.876Z,21.10
2019-03-10T11:36:11.078Z,21.00
2019-03-10T11:38:49.384Z,21.00
2019-03-10T11:41:33.427Z,21.00
2019-03-10T11:44:01.141Z,21.00
2019-03-10T11:46:43.942Z,21.00
2019-03-10T11:49:19.299Z,21.00
2019-03-10T11:51:57.864Z,21.00
2019-03-10T11:54:42.119Z,21.00
2019-03-10T11:57:29.119Z,21.00
2019-03-10T12:00:09.839Z,21.00
2019-03-10T12:02:48.917Z,21.00
2019-03-10T12:05:30.110Z,21.00
2019-03-10T12:08:17.172Z,20.90
2019-03-10T12:10:50.873Z,20.90
2019-03-10T12:13:27.150Z,20.90
2019-03-10T12:16:00.879Z,20.90
2019-03-10T12:18:34.686Z,20.90
2019-03-10T12:21:08.531Z,20.90
2019-03-10T12:23:43.708Z,20.90
2019-03-10T12:26:18.109Z,20.90
2019-03-10T12:28:52.002Z,20.90
2019-03-10T12:31:25.902Z,20.90
2019-03-10T12:33:59.770Z,20.90
2019-03-10T12:36:36.608Z,20.90
2019-03-10T12:39:10.783Z,20.90
2019-03-10T12:41:44.780Z,20.90
2019-03-10T12:44:18.677Z,20.90
2019-03-10T12:46:54.304Z,20.90
2019-03-10T12:49:29.345Z,20.90
2019-03-10T12:52:03.196Z,20.90
2019-03-10T12:54:36.621Z,20.80
2019-03-10T12:57:10.456Z,20.80
2019-03-10T12:59:44.226Z,20.80
2019-03-10T13:02:20.047Z,20.80
2019-03-10T13:04:54.153Z,20.80
2019-03-10T13:07:27.866Z,20.80
2019-03-10T13:10:01.280Z,20.80
2019-03-10T13:12:48.107Z,20.80
2019-03-10T13:15:22.006Z,20.80
2019-03-10T13:17:55.861Z,20.80
2019-03-10T13:20:29.820Z,20.80
2019-03-10T13:23:04.026Z,20.80
2019-03-10T13:25:37.347Z,20.80
2019-03-10T13:28:11.146Z,20.70
2019-03-10T13:30:45.071Z,20.60
2019-03-10T13:33:18.906Z,20.70
2019-03-10T13:35:53.402Z,20.60
2019-03-10T13:38:27.653Z,20.60
2019-03-10T13:41:02.555Z,20.60
2019-03-10T13:43:37.183Z,20.60
2019-03-10T13:46:10.857Z,20.60
2019-03-10T13:48:44.823Z,20.60
2019-03-10T13:51:18.064Z,20.60
2019-03-10T13:53:51.639Z,20.60
2019-03-10T13:56:27.264Z,20.60
2019-03-10T13:59:00.639Z,20.60
2019-03-10T14:01:34.387Z,20.60
2019-03-10T14:04:08.638Z,20.50
2019-03-10T14:06:41.882Z,20.50
2019-03-10T14:09:15.377Z,20.50
2019-03-10T14:11:50.631Z,20.50
2019-03-10T14:14:25.152Z,20.50
2019-03-10T14:16:58.436Z,20.50
2019-03-10T14:19:32.096Z,20.60
2019-03-10T14:22:05.816Z,20.60
2019-03-10T14:24:40.009Z,20.50
2019-03-10T14:27:13.582Z,20.50
2019-03-10T14:29:47.843Z,20.50
2019-03-10T14:32:21.783Z,20.50
2019-03-10T14:34:56.606Z,20.50
2019-03-10T14:37:31.534Z,20.50
2019-03-10T14:40:05.635Z,20.50
2019-03-10T14:42:38.989Z,20.50
2019-03-10T14:45:19.209Z,20.50
2019-03-10T14:47:52.728Z,20.50
2019-03-10T14:50:26.612Z,20.60
2019-03-10T14:53:00.111Z,20.60
2019-03-10T14:55:34.654Z,20.60
2019-03-10T14:58:08.688Z,20.60
2019-03-10T15:00:42.787Z,20.60
2019-03-10T15:03:16.235Z,20.60
2019-03-10T15:05:50.371Z,20.60
2019-03-10T15:08:25.429Z,20.60
2019-03-10T15:11:00.483Z,20.60
2019-03-10T15:13:35.141Z,20.60
2019-03-10T15:16:09.245Z,20.60
2019-03-10T15:18:42.917Z,20.60
2019-03-10T15:21:19.304Z,20.60
2019-03-10T15:23:51.104Z,20.70
2019-03-10T15:26:24.869Z,20.70
2019-03-10T15:28:59.084Z,20.70
2019-03-10T15:31:32.786Z,20.70
2019-03-10T15:34:06.511Z,20.70
2019-03-10T15:36:42.450Z,20.70
2019-03-10T15:39:17.658Z,20.70
2019-03-10T15:41:52.108Z,20.70
2019-03-10T15:44:25.938Z,20.60
2019-03-10T15:46:59.968Z,20.60
2019-03-10T15:49:34.716Z,20.60
2019-03-10T15:52:09.088Z,20.60
2019-03-10T15:54:42.388Z,20.50
2019-03-10T15:57:16.044Z,20.60
2019-03-10T15:59:49.519Z,20.60
2019-03-10T16:02:23.746Z,20.60
2019-03-10T16:04:57.435Z,20.60
2019-03-10T16:07:30.987Z,20.60
2019-03-10T16:10:08.223Z,20.60
2019-03-10T16:12:42.766Z,20.50
2019-03-10T16:15:20.565Z,20.60
2019-03-10T16:17:54.527Z,20.60
2019-03-10T16:20:28.143Z,20.60
2019-03-10T16:23:02.305Z,20.60
2019-03-10T16:25:35.729Z,20.60
2019-03-10T16:28:09.586Z,20.60
2019-03-10T16:30:42.974Z,20.50
2019-03-10T16:33:16.695Z,20.60
2019-03-10T16:35:50.421Z,20.60
2019-03-10T16:38:24.055Z,20.60
2019-03-10T16:40:57.947Z,20.50
2019-03-10T16:43:32.046Z,20.60
2019-03-10T16:46:05.753Z,20.50
2019-03-10T16:48:39.705Z,20.50
2019-03-10T16:51:13.275Z,20.50
2019-03-10T16:53:47.115Z,20.50
2019-03-10T16:56:21.491Z,20.50
2019-03-10T16:58:56.584Z,20.50
2019-03-10T17:01:29.800Z,20.50
2019-03-10T17:04:03.415Z,20.50
2019-03-10T17:06:38.026Z,20.50
2019-03-10T17:09:18.995Z,20.50
2019-03-10T17:11:52.597Z,20.50
2019-03-10T17:14:28.405Z,20.50
2019-03-10T17:17:01.615Z,20.50
2019-03-10T17:19:35.005Z,20.50
2019-03-10T17:22:08.347Z,20.50
2019-03-10T17:24:42.215Z,20.50
2019-03-10T17:27:15.602Z,20.50
2019-03-10T17:29:49.323Z,20.50
2019-03-10T17:32:22.553Z,20.50
2019-03-10T17:34:56.287Z,20.50
2019-03-10T17:37:30.106Z,20.50
2019-03-10T17:40:03.925Z,20.50
2019-03-10T17:42:37.615Z,20.50
2019-03-10T17:45:14.148Z,20.50
2019-03-10T17:47:47.699Z,20.50
2019-03-10T17:50:21.377Z,20.50
2019-03-10T17:52:55.285Z,20.50
2019-03-10T17:55:29.171Z,20.50
2019-03-10T17:58:03.023Z,20.50
2019-03-10T18:00:39.160Z,20.50
2019-03-10T18:03:12.584Z,20.50
2019-03-10T18:05:46.551Z,20.50
2019-03-10T18:08:20.118Z,20.50
2019-03-10T18:10:53.581Z,20.50
2019-03-10T18:13:27.605Z,20.50
2019-03-10T18:16:01.035Z,20.50
2019-03-10T18:18:34.792Z,20.50
2019-03-10T18:21:10.482Z,20.50
2019-03-10T18:23:45.788Z,20.50
2019-03-10T18:26:19.224Z,20.40
2019-03-10T18:28:52.579Z,20.50
2019-03-10T18:31:26.132Z,20.40
2019-03-10T18:33:59.432Z,20.50
2019-03-10T18:36:33.133Z,20.50
2019-03-10T18:39:07.512Z,20.40
2019-03-10T18:41:41.526Z,20.40
2019-03-10T18:44:14.856Z,20.50
2019-03-10T18:46:48.207Z,20.40
2019-03-10T18:49:22.900Z,20.40
2019-03-10T18:51:56.599Z,20.50
2019-03-10T18:54:31.089Z,20.40
2019-03-10T18:57:04.664Z,20.40
2019-03-10T18:59:38.577Z,20.40
2019-03-10T19:02:12.199Z,20.40
2019-03-10T19:04:45.879Z,20.40
2019-03-10T19:07:19.235Z,20.40
2019-03-10T19:09:52.427Z,20.40
2019-03-10T19:12:25.819Z,20.40
2019-03-10T19:14:59.145Z,20.40
2019-03-10T19:17:32.651Z,20.40
2019-03-10T19:20:06.480Z,20.40
2019-03-10T19:22:40.243Z,20.40
2019-03-10T19:25:14.625Z,20.40
2019-03-10T19:27:48.333Z,20.40
2019-03-10T19:30:22.549Z,20.40
2019-03-10T19:32:56.852Z,20.40
2019-03-10T19:35:30.354Z,20.40
2019-03-10T19:38:04.693Z,20.40
2019-03-10T19:40:38.368Z,20.40
2019-03-10T19:43:11.848Z,20.40
2019-03-10T19:45:45.191Z,20.40
2019-03-10T19:48:18.908Z,20.40
2019-03-10T19:50:52.156Z,20.40
2019-03-10T19:53:25.886Z,20.40
2019-03-10T19:55:59.205Z,20.40
2019-03-10T19:58:32.943Z,20.30
2019-03-10T20:01:06.572Z,20.30
2019-03-10T20:03:40.307Z,20.30
2019-03-10T20:06:13.639Z,20.30
2019-03-10T20:08:47.120Z,20.30
2019-03-10T20:11:20.803Z,20.30
2019-03-10T20:13:54.547Z,20.30
2019-03-10T20:16:28.171Z,20.30
2019-03-10T20:19:01.993Z,20.30
2019-03-10T20:21:38.291Z,20.30
2019-03-10T20:24:12.267Z,20.30
2019-03-10T20:26:45.904Z,20.30
2019-03-10T20:29:19.386Z,20.30
2019-03-10T20:31:53.090Z,20.30
2019-03-10T20:34:26.468Z,20.40
2019-03-10T20:37:01.190Z,20.40
2019-03-10T20:39:36.395Z,20.40
2019-03-10T20:42:11.997Z,20.40
2019-03-10T20:44:45.296Z,20.40
2019-03-10T20:47:18.779Z,20.30
2019-03-10T20:49:52.500Z,20.40
2019-03-10T20:52:25.822Z,20.30
2019-03-10T20:54:59.536Z,20.30
2019-03-10T20:57:33.379Z,20.30
2019-03-10T21:00:07.997Z,20.30
2019-03-10T21:02:41.707Z,20.30
2019-03-10T21:05:15.542Z,20.30
2019-03-10T21:07:48.971Z,20.30
2019-03-10T21:10:23.019Z,20.30
2019-03-10T21:12:56.314Z,20.30
2019-03-10T21:15:29.959Z,20.30
2019-03-10T21:18:03.285Z,20.30
2019-03-10T21:20:36.719Z,20.30
2019-03-10T21:23:09.957Z,20.30
2019-03-10T21:25:43.778Z,20.30
2019-03-10T21:28:18.299Z,20.30
2019-03-10T21:30:52.004Z,20.30
2019-03-10T21:33:25.647Z,20.30
2019-03-10T21:36:00.480Z,20.30
2019-03-10T21:38:33.810Z,20.30
2019-03-10T21:41:14.007Z,20.30
2019-03-10T21:43:42.430Z,20.30
2019-03-10T21:46:16.243Z,20.30
2019-03-10T21:48:50.100Z,20.30
2019-03-10T21:51:23.512Z,20.30
2019-03-10T21:53:57.111Z,20.30
2019-03-10T21:56:31.286Z,20.30
2019-03-10T21:59:04.842Z,20.30
2019-03-10T22:01:38.607Z,20.30
2019-03-10T22:04:12.987Z,20.20
2019-03-10T22:06:46.432Z,20.20
2019-03-10T22:09:19.639Z,20.30
2019-03-10T22:11:53.489Z,20.30
2019-03-10T22:14:28.748Z,20.20
2019-03-10T22:17:02.712Z,20.20
2019-03-10T22:19:36.164Z,20.20
2019-03-10T22:22:09.861Z,20.20
2019-03-10T22:24:43.251Z,20.20
2019-03-10T22:27:16.971Z,20.20
2019-03-10T22:29:50.183Z,20.20
2019-03-10T22:32:23.782Z,20.20
2019-03-10T22:34:57.027Z,20.20
2019-03-10T22:37:30.746Z,20.20
2019-03-10T22:40:04.490Z,20.20
2019-03-10T22:42:39.851Z,20.20
2019-03-10T22:45:15.896Z,20.20
2019-03-10T22:47:49.310Z,20.10
2019-03-10T22:50:23.142Z,20.10
2019-03-10T22:52:56.527Z,20.20
2019-03-10T22:55:30.192Z,20.20
2019-03-10T22:58:03.612Z,20.20
2019-03-10T23:00:40.976Z,20.20
2019-03-10T23:03:16.727Z,20.20
2019-03-10T23:05:51.398Z,20.10
2019-03-10T23:08:25.258Z,20.10
2019-03-10T23:10:58.633Z,20.10
2019-03-10T23:13:32.156Z,20.20
2019-03-10T23:16:05.473Z,20.20
2019-03-10T23:18:39.187Z,20.20
2019-03-10T23:21:12.593Z,20.10
2019-03-10T23:23:46.880Z,20.20
2019-03-10T23:26:20.430Z,20.20
2019-03-10T23:28:55.195Z,20.20
2019-03-10T23:31:28.491Z,20.20
2019-03-10T23:34:01.951Z,20.20
2019-03-10T23:36:35.543Z,20.20
2019-03-10T23:39:09.728Z,20.20
2019-03-10T23:41:44.826Z,20.30
2019-03-10T23:44:18.971Z,20.30
2019-03-10T23:46:52.939Z,20.30
2019-03-10T23:49:26.796Z,20.30
2019-03-10T23:52:00.652Z,20.30
2019-03-10T23:54:34.116Z,20.30
2019-03-10T23:57:07.791Z,20.30
2019-03-10T23:59:41.469Z,20.30
